sensor_id;sensor_type;location;lat;lon;timestamp;temperature;humidity
39017;DHT22;24784;45.582;5.276;2023-07-29T00:01:59;24.20;94.50
39017;DHT22;24784;45.582;5.276;2023-07-29T00:04:25;24.20;94.50
39017;DHT22;24784;45.582;5.276;2023-07-29T00:06:50;24.10;94.70
39017;DHT22;24784;45.582;5.276;2023-07-29T00:09:16;24.10;94.80
39017;DHT22;24784;45.582;5.276;2023-07-29T00:11:41;24.10;94.90
39017;DHT22;24784;45.582;5.276;2023-07-29T00:14:07;24.10;94.90
39017;DHT22;24784;45.582;5.276;2023-07-29T00:16:32;24.00;95.20
39017;DHT22;24784;45.582;5.276;2023-07-29T00:18:58;24.00;95.00
39017;DHT22;24784;45.582;5.276;2023-07-29T00:21:23;24.00;95.10
39017;DHT22;24784;45.582;5.276;2023-07-29T00:23:49;24.00;95.10
39017;DHT22;24784;45.582;5.276;2023-07-29T00:26:14;24.00;95.10
39017;DHT22;24784;45.582;5.276;2023-07-29T00:28:40;23.90;95.00
39017;DHT22;24784;45.582;5.276;2023-07-29T00:31:06;23.90;95.10
39017;DHT22;24784;45.582;5.276;2023-07-29T00:33:31;23.90;95.10
39017;DHT22;24784;45.582;5.276;2023-07-29T00:35:57;23.90;95.10
39017;DHT22;24784;45.582;5.276;2023-07-29T00:38:27;23.80;95.10
39017;DHT22;24784;45.582;5.276;2023-07-29T00:40:52;23.90;95.20
39017;DHT22;24784;45.582;5.276;2023-07-29T00:43:18;23.70;95.30
39017;DHT22;24784;45.582;5.276;2023-07-29T00:45:43;23.70;95.20
39017;DHT22;24784;45.582;5.276;2023-07-29T00:48:10;23.60;95.10
39017;DHT22;24784;45.582;5.276;2023-07-29T00:50:35;23.60;95.00
39017;DHT22;24784;45.582;5.276;2023-07-29T00:53:01;23.50;95.10
39017;DHT22;24784;45.582;5.276;2023-07-29T00:55:27;23.50;94.90
39017;DHT22;24784;45.582;5.276;2023-07-29T00:57:53;23.50;94.90
39017;DHT22;24784;45.582;5.276;2023-07-29T01:00:20;23.50;94.90
39017;DHT22;24784;45.582;5.276;2023-07-29T01:02:45;23.40;95.10
39017;DHT22;24784;45.582;5.276;2023-07-29T01:05:11;23.40;95.10
39017;DHT22;24784;45.582;5.276;2023-07-29T01:07:48;23.40;95.10
39017;DHT22;24784;45.582;5.276;2023-07-29T01:10:22;23.30;95.20
39017;DHT22;24784;45.582;5.276;2023-07-29T01:13:06;23.30;95.10
39017;DHT22;24784;45.582;5.276;2023-07-29T01:15:33;23.30;95.20
39017;DHT22;24784;45.582;5.276;2023-07-29T01:18:05;23.30;95.30
39017;DHT22;24784;45.582;5.276;2023-07-29T01:20:33;23.20;95.40
39017;DHT22;24784;45.582;5.276;2023-07-29T01:22:59;23.20;95.50
39017;DHT22;24784;45.582;5.276;2023-07-29T01:25:24;23.10;95.50
39017;DHT22;24784;45.582;5.276;2023-07-29T01:27:51;23.10;95.30
39017;DHT22;24784;45.582;5.276;2023-07-29T01:30:21;23.00;95.40
39017;DHT22;24784;45.582;5.276;2023-07-29T01:35:20;22.90;95.60
39017;DHT22;24784;45.582;5.276;2023-07-29T01:37:48;22.90;95.40
39017;DHT22;24784;45.582;5.276;2023-07-29T01:40:15;22.90;95.20
39017;DHT22;24784;45.582;5.276;2023-07-29T01:42:41;22.90;95.10
39017;DHT22;24784;45.582;5.276;2023-07-29T01:45:06;22.90;95.00
39017;DHT22;24784;45.582;5.276;2023-07-29T01:47:32;22.90;95.00
39017;DHT22;24784;45.582;5.276;2023-07-29T01:49:58;22.90;95.00
39017;DHT22;24784;45.582;5.276;2023-07-29T01:52:23;22.80;95.10
39017;DHT22;24784;45.582;5.276;2023-07-29T01:54:49;22.80;95.10
39017;DHT22;24784;45.582;5.276;2023-07-29T01:57:14;22.70;95.10
39017;DHT22;24784;45.582;5.276;2023-07-29T01:59:40;22.70;95.20
39017;DHT22;24784;45.582;5.276;2023-07-29T02:02:06;22.70;95.20
39017;DHT22;24784;45.582;5.276;2023-07-29T02:04:31;22.70;95.10
39017;DHT22;24784;45.582;5.276;2023-07-29T02:06:57;22.70;95.10
39017;DHT22;24784;45.582;5.276;2023-07-29T02:09:23;22.60;95.10
39017;DHT22;24784;45.582;5.276;2023-07-29T02:11:48;22.60;95.20
39017;DHT22;24784;45.582;5.276;2023-07-29T02:14:14;22.50;95.30
39017;DHT22;24784;45.582;5.276;2023-07-29T02:16:39;22.50;95.10
39017;DHT22;24784;45.582;5.276;2023-07-29T02:19:05;22.40;95.00
39017;DHT22;24784;45.582;5.276;2023-07-29T02:21:30;22.40;94.90
39017;DHT22;24784;45.582;5.276;2023-07-29T02:23:56;22.40;94.70
39017;DHT22;24784;45.582;5.276;2023-07-29T02:26:22;22.40;94.40
39017;DHT22;24784;45.582;5.276;2023-07-29T02:28:47;22.40;94.40
39017;DHT22;24784;45.582;5.276;2023-07-29T02:31:17;22.40;94.30
39017;DHT22;24784;45.582;5.276;2023-07-29T02:33:43;22.30;94.30
39017;DHT22;24784;45.582;5.276;2023-07-29T02:36:10;22.30;94.30
39017;DHT22;24784;45.582;5.276;2023-07-29T02:38:36;22.30;94.30
39017;DHT22;24784;45.582;5.276;2023-07-29T02:41:02;22.30;94.20
39017;DHT22;24784;45.582;5.276;2023-07-29T02:43:28;22.20;94.10
39017;DHT22;24784;45.582;5.276;2023-07-29T02:45:53;22.20;94.10
39017;DHT22;24784;45.582;5.276;2023-07-29T02:48:19;22.20;93.80
39017;DHT22;24784;45.582;5.276;2023-07-29T02:50:44;22.20;93.90
39017;DHT22;24784;45.582;5.276;2023-07-29T02:53:10;22.20;93.40
39017;DHT22;24784;45.582;5.276;2023-07-29T02:55:38;22.30;93.10
39017;DHT22;24784;45.582;5.276;2023-07-29T02:58:04;22.30;93.00
39017;DHT22;24784;45.582;5.276;2023-07-29T03:00:31;22.30;92.80
39017;DHT22;24784;45.582;5.276;2023-07-29T03:02:56;22.30;92.50
39017;DHT22;24784;45.582;5.276;2023-07-29T03:05:22;22.30;92.30
39017;DHT22;24784;45.582;5.276;2023-07-29T03:07:47;22.40;92.20
39017;DHT22;24784;45.582;5.276;2023-07-29T03:10:13;22.40;92.00
39017;DHT22;24784;45.582;5.276;2023-07-29T03:12:39;22.40;92.00
39017;DHT22;24784;45.582;5.276;2023-07-29T03:15:05;22.40;91.80
39017;DHT22;24784;45.582;5.276;2023-07-29T03:17:31;22.40;91.80
39017;DHT22;24784;45.582;5.276;2023-07-29T03:19:56;22.40;91.70
39017;DHT22;24784;45.582;5.276;2023-07-29T03:22:22;22.40;91.70
39017;DHT22;24784;45.582;5.276;2023-07-29T03:24:47;22.40;91.60
39017;DHT22;24784;45.582;5.276;2023-07-29T03:27:13;22.40;91.60
39017;DHT22;24784;45.582;5.276;2023-07-29T03:29:41;22.40;91.60
39017;DHT22;24784;45.582;5.276;2023-07-29T03:32:07;22.30;91.50
39017;DHT22;24784;45.582;5.276;2023-07-29T03:34:32;22.30;91.40
39017;DHT22;24784;45.582;5.276;2023-07-29T03:36:58;22.30;91.50
39017;DHT22;24784;45.582;5.276;2023-07-29T03:39:24;22.30;91.50
39017;DHT22;24784;45.582;5.276;2023-07-29T03:41:50;22.30;91.40
39017;DHT22;24784;45.582;5.276;2023-07-29T03:44:15;22.30;91.50
39017;DHT22;24784;45.582;5.276;2023-07-29T03:46:41;22.20;91.40
39017;DHT22;24784;45.582;5.276;2023-07-29T03:49:06;22.30;91.30
39017;DHT22;24784;45.582;5.276;2023-07-29T03:51:32;22.30;91.40
39017;DHT22;24784;45.582;5.276;2023-07-29T03:53:58;22.30;91.30
39017;DHT22;24784;45.582;5.276;2023-07-29T03:56:23;22.20;91.40
39017;DHT22;24784;45.582;5.276;2023-07-29T03:58:49;22.20;91.40
39017;DHT22;24784;45.582;5.276;2023-07-29T04:01:14;22.20;91.40
39017;DHT22;24784;45.582;5.276;2023-07-29T04:03:40;22.20;91.50
39017;DHT22;24784;45.582;5.276;2023-07-29T04:06:05;22.10;91.60
39017;DHT22;24784;45.582;5.276;2023-07-29T04:08:31;22.10;91.60
39017;DHT22;24784;45.582;5.276;2023-07-29T04:10:57;22.10;91.70
39017;DHT22;24784;45.582;5.276;2023-07-29T04:13:23;22.10;91.60
39017;DHT22;24784;45.582;5.276;2023-07-29T04:15:48;22.10;91.60
39017;DHT22;24784;45.582;5.276;2023-07-29T04:18:14;22.10;91.60
39017;DHT22;24784;45.582;5.276;2023-07-29T04:20:39;22.20;91.50
39017;DHT22;24784;45.582;5.276;2023-07-29T04:23:05;22.20;91.40
39017;DHT22;24784;45.582;5.276;2023-07-29T04:25:30;22.20;91.40
39017;DHT22;24784;45.582;5.276;2023-07-29T04:27:56;22.20;91.30
39017;DHT22;24784;45.582;5.276;2023-07-29T04:30:23;22.20;91.30
39017;DHT22;24784;45.582;5.276;2023-07-29T04:32:48;22.20;91.30
39017;DHT22;24784;45.582;5.276;2023-07-29T04:35:14;22.20;91.40
39017;DHT22;24784;45.582;5.276;2023-07-29T04:37:40;22.20;91.40
39017;DHT22;24784;45.582;5.276;2023-07-29T04:40:11;22.20;91.40
39017;DHT22;24784;45.582;5.276;2023-07-29T04:42:37;22.30;91.40
39017;DHT22;24784;45.582;5.276;2023-07-29T04:45:03;22.30;91.40
39017;DHT22;24784;45.582;5.276;2023-07-29T04:47:29;22.30;91.40
39017;DHT22;24784;45.582;5.276;2023-07-29T04:49:54;22.30;91.40
39017;DHT22;24784;45.582;5.276;2023-07-29T04:52:20;22.20;91.50
39017;DHT22;24784;45.582;5.276;2023-07-29T04:54:46;22.20;91.50
39017;DHT22;24784;45.582;5.276;2023-07-29T04:57:11;22.20;91.60
39017;DHT22;24784;45.582;5.276;2023-07-29T04:59:37;22.20;91.70
39017;DHT22;24784;45.582;5.276;2023-07-29T05:02:03;22.20;91.70
39017;DHT22;24784;45.582;5.276;2023-07-29T05:04:28;22.20;91.70
39017;DHT22;24784;45.582;5.276;2023-07-29T05:06:54;22.20;91.70
39017;DHT22;24784;45.582;5.276;2023-07-29T05:09:19;22.20;91.70
39017;DHT22;24784;45.582;5.276;2023-07-29T05:11:45;22.20;91.60
39017;DHT22;24784;45.582;5.276;2023-07-29T05:14:12;22.30;91.60
39017;DHT22;24784;45.582;5.276;2023-07-29T05:16:38;22.20;91.70
39017;DHT22;24784;45.582;5.276;2023-07-29T05:19:03;22.20;91.80
39017;DHT22;24784;45.582;5.276;2023-07-29T05:21:29;22.20;91.70
39017;DHT22;24784;45.582;5.276;2023-07-29T05:23:55;22.20;91.90
39017;DHT22;24784;45.582;5.276;2023-07-29T05:26:20;22.30;92.00
39017;DHT22;24784;45.582;5.276;2023-07-29T05:28:46;22.20;92.00
39017;DHT22;24784;45.582;5.276;2023-07-29T05:31:11;22.20;92.20
39017;DHT22;24784;45.582;5.276;2023-07-29T05:33:37;22.30;92.20
39017;DHT22;24784;45.582;5.276;2023-07-29T05:36:02;22.30;92.30
39017;DHT22;24784;45.582;5.276;2023-07-29T05:38:28;22.30;92.30
39017;DHT22;24784;45.582;5.276;2023-07-29T05:40:54;22.20;92.30
39017;DHT22;24784;45.582;5.276;2023-07-29T05:43:19;22.30;92.30
39017;DHT22;24784;45.582;5.276;2023-07-29T05:45:45;22.30;92.50
39017;DHT22;24784;45.582;5.276;2023-07-29T05:48:10;22.30;92.60
39017;DHT22;24784;45.582;5.276;2023-07-29T05:50:36;22.30;92.40
39017;DHT22;24784;45.582;5.276;2023-07-29T05:53:02;22.30;92.40
39017;DHT22;24784;45.582;5.276;2023-07-29T05:55:27;22.30;92.50
39017;DHT22;24784;45.582;5.276;2023-07-29T05:57:53;22.30;92.40
39017;DHT22;24784;45.582;5.276;2023-07-29T06:00:23;22.30;92.40
39017;DHT22;24784;45.582;5.276;2023-07-29T06:02:48;22.40;92.60
39017;DHT22;24784;45.582;5.276;2023-07-29T06:05:14;22.40;92.80
39017;DHT22;24784;45.582;5.276;2023-07-29T06:07:40;22.50;92.50
39017;DHT22;24784;45.582;5.276;2023-07-29T06:10:09;22.50;92.20
39017;DHT22;24784;45.582;5.276;2023-07-29T06:12:37;22.60;92.30
39017;DHT22;24784;45.582;5.276;2023-07-29T06:15:05;22.60;92.50
39017;DHT22;24784;45.582;5.276;2023-07-29T06:17:31;22.70;92.60
39017;DHT22;24784;45.582;5.276;2023-07-29T06:19:57;22.70;92.90
39017;DHT22;24784;45.582;5.276;2023-07-29T06:22:22;22.80;93.00
39017;DHT22;24784;45.582;5.276;2023-07-29T06:24:48;22.90;93.40
39017;DHT22;24784;45.582;5.276;2023-07-29T06:27:13;22.90;93.60
39017;DHT22;24784;45.582;5.276;2023-07-29T06:29:39;22.90;93.90
39017;DHT22;24784;45.582;5.276;2023-07-29T06:32:05;22.90;93.60
39017;DHT22;24784;45.582;5.276;2023-07-29T06:34:30;22.90;93.80
39017;DHT22;24784;45.582;5.276;2023-07-29T06:36:56;22.90;94.00
39017;DHT22;24784;45.582;5.276;2023-07-29T06:39:21;22.90;94.00
39017;DHT22;24784;45.582;5.276;2023-07-29T06:41:47;22.80;92.90
39017;DHT22;24784;45.582;5.276;2023-07-29T06:44:13;22.90;92.90
39017;DHT22;24784;45.582;5.276;2023-07-29T06:46:38;22.90;92.90
39017;DHT22;24784;45.582;5.276;2023-07-29T06:49:05;23.00;93.10
39017;DHT22;24784;45.582;5.276;2023-07-29T06:51:30;23.00;93.40
39017;DHT22;24784;45.582;5.276;2023-07-29T06:53:59;23.00;93.70
39017;DHT22;24784;45.582;5.276;2023-07-29T06:56:25;23.00;93.60
39017;DHT22;24784;45.582;5.276;2023-07-29T06:58:51;22.90;93.70
39017;DHT22;24784;45.582;5.276;2023-07-29T07:01:17;22.90;93.80
39017;DHT22;24784;45.582;5.276;2023-07-29T07:03:42;23.00;93.80
39017;DHT22;24784;45.582;5.276;2023-07-29T07:06:08;23.00;94.00
39017;DHT22;24784;45.582;5.276;2023-07-29T07:08:33;22.90;94.20
39017;DHT22;24784;45.582;5.276;2023-07-29T07:10:59;22.90;94.00
39017;DHT22;24784;45.582;5.276;2023-07-29T07:13:24;22.90;93.40
39017;DHT22;24784;45.582;5.276;2023-07-29T07:15:50;22.90;93.50
39017;DHT22;24784;45.582;5.276;2023-07-29T07:18:16;22.90;93.60
39017;DHT22;24784;45.582;5.276;2023-07-29T07:20:41;23.00;94.20
39017;DHT22;24784;45.582;5.276;2023-07-29T07:23:07;23.10;93.70
39017;DHT22;24784;45.582;5.276;2023-07-29T07:25:36;23.20;92.70
39017;DHT22;24784;45.582;5.276;2023-07-29T07:28:11;23.40;92.50
39017;DHT22;24784;45.582;5.276;2023-07-29T07:30:39;23.50;92.40
39017;DHT22;24784;45.582;5.276;2023-07-29T07:33:06;23.50;92.50
39017;DHT22;24784;45.582;5.276;2023-07-29T07:35:31;23.50;92.40
39017;DHT22;24784;45.582;5.276;2023-07-29T07:37:57;23.40;91.60
39017;DHT22;24784;45.582;5.276;2023-07-29T07:40:24;23.40;92.30
39017;DHT22;24784;45.582;5.276;2023-07-29T07:42:49;23.40;92.90
39017;DHT22;24784;45.582;5.276;2023-07-29T07:45:15;23.40;92.30
39017;DHT22;24784;45.582;5.276;2023-07-29T07:47:40;23.40;92.80
39017;DHT22;24784;45.582;5.276;2023-07-29T07:50:06;23.40;93.50
39017;DHT22;24784;45.582;5.276;2023-07-29T07:52:32;23.40;93.70
39017;DHT22;24784;45.582;5.276;2023-07-29T07:54:57;23.40;93.70
39017;DHT22;24784;45.582;5.276;2023-07-29T07:57:23;23.40;93.30
39017;DHT22;24784;45.582;5.276;2023-07-29T07:59:48;23.40;94.00
39017;DHT22;24784;45.582;5.276;2023-07-29T08:02:14;23.40;93.90
39017;DHT22;24784;45.582;5.276;2023-07-29T08:04:40;23.40;93.80
39017;DHT22;24784;45.582;5.276;2023-07-29T08:07:05;23.40;94.20
39017;DHT22;24784;45.582;5.276;2023-07-29T08:09:31;23.40;94.90
39017;DHT22;24784;45.582;5.276;2023-07-29T08:11:56;23.50;94.40
39017;DHT22;24784;45.582;5.276;2023-07-29T08:14:22;23.50;94.00
39017;DHT22;24784;45.582;5.276;2023-07-29T08:16:48;23.50;93.90
39017;DHT22;24784;45.582;5.276;2023-07-29T08:19:13;23.50;93.90
39017;DHT22;24784;45.582;5.276;2023-07-29T08:21:39;23.60;94.20
39017;DHT22;24784;45.582;5.276;2023-07-29T08:24:04;23.60;93.90
39017;DHT22;24784;45.582;5.276;2023-07-29T08:26:32;23.50;94.40
39017;DHT22;24784;45.582;5.276;2023-07-29T08:28:57;23.50;94.00
39017;DHT22;24784;45.582;5.276;2023-07-29T08:31:23;23.50;94.10
39017;DHT22;24784;45.582;5.276;2023-07-29T08:33:48;23.60;94.50
39017;DHT22;24784;45.582;5.276;2023-07-29T08:36:14;23.60;94.60
39017;DHT22;24784;45.582;5.276;2023-07-29T08:38:40;23.60;95.00
39017;DHT22;24784;45.582;5.276;2023-07-29T08:43:31;23.50;95.10
39017;DHT22;24784;45.582;5.276;2023-07-29T08:45:57;23.50;95.00
39017;DHT22;24784;45.582;5.276;2023-07-29T08:48:33;23.50;95.10
39017;DHT22;24784;45.582;5.276;2023-07-29T08:51:01;23.70;95.00
39017;DHT22;24784;45.582;5.276;2023-07-29T08:53:28;23.70;95.00
39017;DHT22;24784;45.582;5.276;2023-07-29T08:55:54;23.70;95.50
39017;DHT22;24784;45.582;5.276;2023-07-29T08:58:21;23.70;95.90
39017;DHT22;24784;45.582;5.276;2023-07-29T09:00:47;23.70;95.60
39017;DHT22;24784;45.582;5.276;2023-07-29T09:03:13;23.70;96.30
39017;DHT22;24784;45.582;5.276;2023-07-29T09:05:39;23.60;96.80
39017;DHT22;24784;45.582;5.276;2023-07-29T09:08:04;23.60;97.20
39017;DHT22;24784;45.582;5.276;2023-07-29T09:10:34;23.60;96.50
39017;DHT22;24784;45.582;5.276;2023-07-29T09:13:00;23.60;96.20
39017;DHT22;24784;45.582;5.276;2023-07-29T09:15:32;23.50;96.60
39017;DHT22;24784;45.582;5.276;2023-07-29T09:17:58;23.50;96.50
39017;DHT22;24784;45.582;5.276;2023-07-29T09:20:27;23.40;96.40
39017;DHT22;24784;45.582;5.276;2023-07-29T09:22:57;23.40;96.70
39017;DHT22;24784;45.582;5.276;2023-07-29T09:25:24;23.40;96.70
39017;DHT22;24784;45.582;5.276;2023-07-29T09:27:49;23.30;96.80
39017;DHT22;24784;45.582;5.276;2023-07-29T09:30:15;23.30;97.10
39017;DHT22;24784;45.582;5.276;2023-07-29T09:32:41;23.30;97.30
39017;DHT22;24784;45.582;5.276;2023-07-29T09:35:11;23.20;97.80
39017;DHT22;24784;45.582;5.276;2023-07-29T09:37:37;23.20;97.80
39017;DHT22;24784;45.582;5.276;2023-07-29T09:40:03;23.10;98.00
39017;DHT22;24784;45.582;5.276;2023-07-29T09:42:29;23.10;97.50
39017;DHT22;24784;45.582;5.276;2023-07-29T09:44:55;23.00;97.40
39017;DHT22;24784;45.582;5.276;2023-07-29T09:47:21;23.00;97.50
39017;DHT22;24784;45.582;5.276;2023-07-29T09:49:47;23.00;97.80
39017;DHT22;24784;45.582;5.276;2023-07-29T09:52:16;23.00;97.80
39017;DHT22;24784;45.582;5.276;2023-07-29T09:54:42;23.00;97.80
39017;DHT22;24784;45.582;5.276;2023-07-29T09:57:08;23.00;97.70
39017;DHT22;24784;45.582;5.276;2023-07-29T09:59:34;23.00;97.70
39017;DHT22;24784;45.582;5.276;2023-07-29T10:02:00;23.10;98.00
39017;DHT22;24784;45.582;5.276;2023-07-29T10:04:25;23.20;98.10
39017;DHT22;24784;45.582;5.276;2023-07-29T10:06:52;23.20;97.90
39017;DHT22;24784;45.582;5.276;2023-07-29T10:09:20;23.20;97.80
39017;DHT22;24784;45.582;5.276;2023-07-29T10:11:46;23.30;97.80
39017;DHT22;24784;45.582;5.276;2023-07-29T10:14:11;23.50;97.80
39017;DHT22;24784;45.582;5.276;2023-07-29T10:16:37;23.60;97.90
39017;DHT22;24784;45.582;5.276;2023-07-29T10:19:04;23.50;96.30
39017;DHT22;24784;45.582;5.276;2023-07-29T10:21:30;23.60;96.90
39017;DHT22;24784;45.582;5.276;2023-07-29T10:23:56;23.70;96.80
39017;DHT22;24784;45.582;5.276;2023-07-29T10:26:23;23.70;96.40
39017;DHT22;24784;45.582;5.276;2023-07-29T10:28:50;23.80;96.20
39017;DHT22;24784;45.582;5.276;2023-07-29T10:31:17;23.80;95.90
39017;DHT22;24784;45.582;5.276;2023-07-29T10:33:43;23.90;95.30
39017;DHT22;24784;45.582;5.276;2023-07-29T10:36:09;23.80;95.20
39017;DHT22;24784;45.582;5.276;2023-07-29T10:38:34;24.00;95.50
39017;DHT22;24784;45.582;5.276;2023-07-29T10:41:00;23.90;95.20
39017;DHT22;24784;45.582;5.276;2023-07-29T10:43:26;23.80;95.40
39017;DHT22;24784;45.582;5.276;2023-07-29T10:45:52;23.70;95.20
39017;DHT22;24784;45.582;5.276;2023-07-29T10:53:44;23.70;94.70
39017;DHT22;24784;45.582;5.276;2023-07-29T10:56:10;23.70;95.00
39017;DHT22;24784;45.582;5.276;2023-07-29T10:58:35;23.60;95.10
39017;DHT22;24784;45.582;5.276;2023-07-29T11:01:01;23.50;95.30
39017;DHT22;24784;45.582;5.276;2023-07-29T11:03:26;23.50;95.30
39017;DHT22;24784;45.582;5.276;2023-07-29T11:05:54;23.60;95.70
39017;DHT22;24784;45.582;5.276;2023-07-29T11:08:26;23.60;95.20
39017;DHT22;24784;45.582;5.276;2023-07-29T11:13:25;23.40;95.10
39017;DHT22;24784;45.582;5.276;2023-07-29T11:15:51;23.50;94.70
39017;DHT22;24784;45.582;5.276;2023-07-29T11:18:18;23.50;94.80
39017;DHT22;24784;45.582;5.276;2023-07-29T11:20:44;23.50;94.80
39017;DHT22;24784;45.582;5.276;2023-07-29T11:23:10;23.50;94.50
39017;DHT22;24784;45.582;5.276;2023-07-29T11:25:36;23.40;95.30
39017;DHT22;24784;45.582;5.276;2023-07-29T11:28:02;23.50;95.30
39017;DHT22;24784;45.582;5.276;2023-07-29T11:30:27;23.40;95.10
39017;DHT22;24784;45.582;5.276;2023-07-29T11:32:54;23.30;95.30
39017;DHT22;24784;45.582;5.276;2023-07-29T11:35:20;23.40;96.30
39017;DHT22;24784;45.582;5.276;2023-07-29T11:37:47;23.40;96.20
39017;DHT22;24784;45.582;5.276;2023-07-29T11:40:17;23.40;96.00
39017;DHT22;24784;45.582;5.276;2023-07-29T11:42:43;23.40;95.70
39017;DHT22;24784;45.582;5.276;2023-07-29T11:45:09;23.40;96.00
39017;DHT22;24784;45.582;5.276;2023-07-29T11:47:36;23.30;96.00
39017;DHT22;24784;45.582;5.276;2023-07-29T11:50:03;23.20;95.90
39017;DHT22;24784;45.582;5.276;2023-07-29T11:52:29;23.20;95.20
39017;DHT22;24784;45.582;5.276;2023-07-29T11:55:03;23.30;95.40
39017;DHT22;24784;45.582;5.276;2023-07-29T11:57:30;23.30;95.70
39017;DHT22;24784;45.582;5.276;2023-07-29T11:59:55;23.30;96.00
39017;DHT22;24784;45.582;5.276;2023-07-29T12:02:21;23.30;96.30
39017;DHT22;24784;45.582;5.276;2023-07-29T12:04:48;23.30;96.30
39017;DHT22;24784;45.582;5.276;2023-07-29T12:07:14;23.30;96.50
39017;DHT22;24784;45.582;5.276;2023-07-29T12:09:41;23.20;96.20
39017;DHT22;24784;45.582;5.276;2023-07-29T12:12:07;23.00;96.70
39017;DHT22;24784;45.582;5.276;2023-07-29T12:14:33;23.00;96.90
39017;DHT22;24784;45.582;5.276;2023-07-29T12:17:00;23.20;96.90
39017;DHT22;24784;45.582;5.276;2023-07-29T12:19:30;23.30;96.80
39017;DHT22;24784;45.582;5.276;2023-07-29T12:21:56;23.30;96.40
39017;DHT22;24784;45.582;5.276;2023-07-29T12:24:22;23.30;96.30
39017;DHT22;24784;45.582;5.276;2023-07-29T12:26:47;23.30;95.80
39017;DHT22;24784;45.582;5.276;2023-07-29T12:29:14;23.40;96.00
39017;DHT22;24784;45.582;5.276;2023-07-29T12:31:40;23.30;96.80
39017;DHT22;24784;45.582;5.276;2023-07-29T12:34:05;23.20;97.30
39017;DHT22;24784;45.582;5.276;2023-07-29T12:36:44;23.00;97.40
39017;DHT22;24784;45.582;5.276;2023-07-29T12:39:17;23.00;98.00
39017;DHT22;24784;45.582;5.276;2023-07-29T12:41:43;23.00;99.10
39017;DHT22;24784;45.582;5.276;2023-07-29T12:44:08;22.80;99.90
39017;DHT22;24784;45.582;5.276;2023-07-29T12:46:34;22.50;99.90
39017;DHT22;24784;45.582;5.276;2023-07-29T12:48:59;22.20;99.90
39017;DHT22;24784;45.582;5.276;2023-07-29T12:51:25;22.40;99.90
39017;DHT22;24784;45.582;5.276;2023-07-29T12:53:51;22.70;99.90
39017;DHT22;24784;45.582;5.276;2023-07-29T12:56:16;23.00;99.90
39017;DHT22;24784;45.582;5.276;2023-07-29T12:58:48;23.20;99.90
39017;DHT22;24784;45.582;5.276;2023-07-29T13:01:14;23.20;99.90
39017;DHT22;24784;45.582;5.276;2023-07-29T13:03:43;23.20;99.90
39017;DHT22;24784;45.582;5.276;2023-07-29T13:06:09;23.20;99.30
39017;DHT22;24784;45.582;5.276;2023-07-29T13:08:34;23.30;99.80
39017;DHT22;24784;45.582;5.276;2023-07-29T13:11:00;23.30;99.80
39017;DHT22;24784;45.582;5.276;2023-07-29T13:13:25;23.30;99.80
39017;DHT22;24784;45.582;5.276;2023-07-29T13:15:51;23.20;99.60
39017;DHT22;24784;45.582;5.276;2023-07-29T13:18:18;23.20;99.90
39017;DHT22;24784;45.582;5.276;2023-07-29T13:20:43;23.00;99.40
39017;DHT22;24784;45.582;5.276;2023-07-29T13:23:09;23.00;99.50
39017;DHT22;24784;45.582;5.276;2023-07-29T13:25:34;23.10;99.90
39017;DHT22;24784;45.582;5.276;2023-07-29T13:28:00;23.20;99.90
39017;DHT22;24784;45.582;5.276;2023-07-29T13:30:26;23.30;99.90
39017;DHT22;24784;45.582;5.276;2023-07-29T13:32:51;23.40;99.80
39017;DHT22;24784;45.582;5.276;2023-07-29T13:35:17;23.50;99.40
39017;DHT22;24784;45.582;5.276;2023-07-29T13:37:42;23.60;97.70
39017;DHT22;24784;45.582;5.276;2023-07-29T13:40:08;23.60;96.70
39017;DHT22;24784;45.582;5.276;2023-07-29T13:42:33;23.50;95.90
39017;DHT22;24784;45.582;5.276;2023-07-29T13:44:59;23.70;96.40
39017;DHT22;24784;45.582;5.276;2023-07-29T13:47:24;23.80;96.30
39017;DHT22;24784;45.582;5.276;2023-07-29T13:49:50;23.90;95.00
39017;DHT22;24784;45.582;5.276;2023-07-29T13:52:16;24.10;94.90
39017;DHT22;24784;45.582;5.276;2023-07-29T13:54:41;24.00;93.90
39017;DHT22;24784;45.582;5.276;2023-07-29T13:59:43;24.40;93.10
39017;DHT22;24784;45.582;5.276;2023-07-29T14:02:09;24.40;93.30
39017;DHT22;24784;45.582;5.276;2023-07-29T14:04:35;24.40;94.20
39017;DHT22;24784;45.582;5.276;2023-07-29T14:07:00;24.50;93.70
39017;DHT22;24784;45.582;5.276;2023-07-29T14:09:26;24.50;93.60
39017;DHT22;24784;45.582;5.276;2023-07-29T14:11:53;24.50;93.10
39017;DHT22;24784;45.582;5.276;2023-07-29T14:14:19;24.60;92.80
39017;DHT22;24784;45.582;5.276;2023-07-29T14:16:45;24.80;92.50
39017;DHT22;24784;45.582;5.276;2023-07-29T14:19:11;25.00;92.60
39017;DHT22;24784;45.582;5.276;2023-07-29T14:21:37;25.20;91.70
39017;DHT22;24784;45.582;5.276;2023-07-29T14:24:03;25.20;90.80
39017;DHT22;24784;45.582;5.276;2023-07-29T14:26:28;25.10;91.50
39017;DHT22;24784;45.582;5.276;2023-07-29T14:28:54;25.10;91.40
39017;DHT22;24784;45.582;5.276;2023-07-29T14:31:20;25.10;90.80
39017;DHT22;24784;45.582;5.276;2023-07-29T14:33:45;25.20;91.60
39017;DHT22;24784;45.582;5.276;2023-07-29T14:36:11;25.60;91.80
39017;DHT22;24784;45.582;5.276;2023-07-29T14:38:37;25.60;90.70
39017;DHT22;24784;45.582;5.276;2023-07-29T14:41:03;25.60;90.40
39017;DHT22;24784;45.582;5.276;2023-07-29T14:43:30;25.30;90.00
39017;DHT22;24784;45.582;5.276;2023-07-29T14:45:56;25.20;90.10
39017;DHT22;24784;45.582;5.276;2023-07-29T14:48:23;25.10;90.40
39017;DHT22;24784;45.582;5.276;2023-07-29T14:50:49;24.90;90.10
39017;DHT22;24784;45.582;5.276;2023-07-29T14:53:14;24.90;90.50
39017;DHT22;24784;45.582;5.276;2023-07-29T14:55:40;24.90;91.00
39017;DHT22;24784;45.582;5.276;2023-07-29T14:58:06;24.90;92.70
39017;DHT22;24784;45.582;5.276;2023-07-29T15:00:32;24.90;93.80
39017;DHT22;24784;45.582;5.276;2023-07-29T15:02:58;24.90;95.20
39017;DHT22;24784;45.582;5.276;2023-07-29T15:05:24;24.80;95.00
39017;DHT22;24784;45.582;5.276;2023-07-29T15:07:50;24.60;94.50
39017;DHT22;24784;45.582;5.276;2023-07-29T15:10:19;24.60;96.20
39017;DHT22;24784;45.582;5.276;2023-07-29T15:12:46;24.50;97.10
39017;DHT22;24784;45.582;5.276;2023-07-29T15:15:12;24.30;97.40
39017;DHT22;24784;45.582;5.276;2023-07-29T15:17:38;24.30;97.60
39017;DHT22;24784;45.582;5.276;2023-07-29T15:20:05;24.30;98.00
39017;DHT22;24784;45.582;5.276;2023-07-29T15:22:31;24.30;97.90
39017;DHT22;24784;45.582;5.276;2023-07-29T15:24:59;24.40;97.50
39017;DHT22;24784;45.582;5.276;2023-07-29T15:27:27;24.80;97.20
39017;DHT22;24784;45.582;5.276;2023-07-29T15:29:53;24.80;98.00
39017;DHT22;24784;45.582;5.276;2023-07-29T15:32:18;24.60;98.90
39017;DHT22;24784;45.582;5.276;2023-07-29T15:34:44;24.60;98.40
39017;DHT22;24784;45.582;5.276;2023-07-29T15:37:10;24.60;98.90
39017;DHT22;24784;45.582;5.276;2023-07-29T15:39:35;24.40;99.10